createdAt,value
2022-11-29T00:01:42.673Z,7.10
2022-11-29T00:04:11.764Z,6.80
2022-11-29T00:06:40.381Z,6.90
2022-11-29T00:09:12.991Z,6.90
2022-11-29T00:12:01.747Z,6.90
2022-11-29T00:14:30.105Z,7.10
2022-11-29T00:17:02.933Z,6.90
2022-11-29T00:19:34.295Z,7.10
2022-11-29T00:22:03.818Z,6.90
2022-11-29T00:24:32.705Z,6.80
2022-11-29T00:27:01.922Z,6.70
2022-11-29T00:29:31.016Z,6.60
2022-11-29T00:32:00.544Z,6.60
2022-11-29T00:34:29.571Z,7.00
2022-11-29T00:36:58.099Z,6.90
2022-11-29T00:39:26.257Z,7.40
2022-11-29T00:41:54.363Z,6.90
2022-11-29T00:44:22.533Z,6.90
2022-11-29T00:46:51.026Z,6.90
2022-11-29T00:49:19.248Z,7.80
2022-11-29T00:51:47.660Z,6.90
2022-11-29T00:54:16.268Z,7.20
2022-11-29T00:56:44.739Z,6.80
2022-11-29T00:59:12.942Z,7.40
2022-11-29T01:01:41.114Z,6.70
2022-11-29T01:04:09.264Z,6.80
2022-11-29T01:06:37.519Z,7.10
2022-11-29T01:09:06.104Z,7.10
2022-11-29T01:11:34.711Z,7.10
2022-11-29T01:14:04.473Z,7.40
2022-11-29T01:16:33.304Z,7.20
2022-11-29T01:19:01.643Z,7.10
2022-11-29T01:21:30.833Z,7.00
2022-11-29T01:24:01.878Z,7.10
2022-11-29T01:26:31.587Z,6.80
2022-11-29T01:29:00.036Z,7.00
2022-11-29T01:31:33.625Z,7.70
2022-11-29T01:34:03.556Z,7.20
2022-11-29T01:36:31.892Z,7.30
2022-11-29T01:39:02.393Z,7.00
2022-11-29T01:41:34.028Z,7.90
2022-11-29T01:44:07.131Z,7.40
2022-11-29T01:46:39.443Z,6.80
2022-11-29T01:49:19.402Z,7.10
2022-11-29T01:51:54.309Z,7.10
2022-11-29T01:56:53.284Z,6.90
2022-11-29T01:59:30.770Z,7.20
2022-11-29T02:02:08.642Z,6.90
2022-11-29T02:04:39.452Z,6.70
2022-11-29T02:07:08.147Z,6.80
2022-11-29T02:09:36.322Z,7.10
2022-11-29T02:12:22.722Z,6.50
2022-11-29T02:15:19.535Z,7.20
2022-11-29T02:18:15.606Z,6.90
2022-11-29T02:20:52.985Z,6.60
2022-11-29T02:23:46.098Z,6.80
2022-11-29T02:27:10.624Z,7.00
2022-11-29T02:30:09.644Z,6.90
2022-11-29T02:33:38.842Z,6.50
2022-11-29T02:37:13.773Z,7.00
2022-11-29T02:40:06.536Z,6.50
2022-11-29T02:42:57.000Z,6.90
2022-11-29T02:45:58.776Z,6.50
2022-11-29T02:48:42.738Z,7.00
2022-11-29T02:51:52.370Z,6.70
2022-11-29T02:54:47.269Z,6.80
2022-11-29T02:57:55.192Z,6.60
2022-11-29T03:00:24.184Z,6.90
2022-11-29T03:02:52.329Z,6.40
2022-11-29T03:05:39.066Z,6.70
2022-11-29T03:08:46.154Z,7.10
2022-11-29T03:11:23.429Z,6.40
2022-11-29T03:14:19.878Z,6.00
2022-11-29T03:17:37.008Z,6.70
2022-11-29T03:20:52.894Z,6.80
2022-11-29T03:23:42.999Z,6.20
2022-11-29T03:26:20.972Z,6.80
2022-11-29T03:29:07.212Z,6.50
2022-11-29T03:32:15.313Z,6.40
2022-11-29T03:34:59.912Z,6.60
2022-11-29T03:38:13.136Z,6.40
2022-11-29T03:41:15.524Z,6.30
2022-11-29T03:44:15.931Z,6.60
2022-11-29T03:47:00.449Z,6.10
2022-11-29T03:49:48.057Z,6.50
2022-11-29T03:52:24.957Z,6.70
2022-11-29T03:55:21.063Z,6.50
2022-11-29T03:58:33.250Z,6.10
2022-11-29T04:01:25.791Z,6.40
2022-11-29T04:03:59.759Z,6.50
2022-11-29T04:06:39.282Z,6.40
2022-11-29T04:09:29.299Z,6.60
2022-11-29T04:12:37.191Z,6.20
2022-11-29T04:15:33.544Z,6.50
2022-11-29T04:18:25.977Z,6.10
2022-11-29T04:21:35.501Z,6.40
2022-11-29T04:24:41.418Z,6.40
2022-11-29T04:27:36.640Z,6.00
2022-11-29T04:30:10.788Z,6.10
2022-11-29T04:33:15.618Z,6.70
2022-11-29T04:36:51.663Z,6.60
2022-11-29T04:39:57.220Z,6.10
2022-11-29T04:42:35.212Z,6.40
2022-11-29T04:45:46.689Z,6.00
2022-11-29T04:49:07.340Z,6.00
2022-11-29T04:52:15.206Z,5.60
2022-11-29T04:55:27.624Z,6.00
2022-11-29T04:58:19.808Z,5.90
2022-11-29T05:01:27.892Z,5.90
2022-11-29T05:04:22.192Z,6.30
2022-11-29T05:07:05.877Z,5.70
2022-11-29T05:10:06.249Z,5.50
2022-11-29T05:12:57.054Z,6.00
2022-11-29T05:15:44.945Z,6.10
2022-11-29T05:18:38.127Z,6.40
2022-11-29T05:21:30.425Z,5.90
2022-11-29T05:24:25.572Z,5.80
2022-11-29T05:27:24.902Z,6.10
2022-11-29T05:30:23.537Z,5.90
2022-11-29T05:33:10.198Z,5.70
2022-11-29T05:35:56.293Z,5.80
2022-11-29T05:39:20.986Z,5.90
2022-11-29T05:42:31.042Z,5.50
2022-11-29T05:45:30.760Z,5.80
2022-11-29T05:48:45.356Z,5.90
2022-11-29T05:51:40.007Z,5.40
2022-11-29T05:54:44.518Z,6.10
2022-11-29T06:04:14.807Z,7.10
2022-11-29T06:10:02.131Z,6.70
2022-11-29T06:12:35.910Z,7.00
2022-11-29T06:15:43.388Z,7.10
2022-11-29T06:18:23.758Z,6.80
2022-11-29T06:21:36.797Z,7.20
2022-11-29T06:24:23.426Z,7.80
2022-11-29T06:27:05.136Z,6.80
2022-11-29T06:29:57.285Z,7.30
2022-11-29T06:32:40.441Z,7.10
2022-11-29T06:35:33.172Z,7.00
2022-11-29T06:38:14.440Z,6.90
2022-11-29T06:40:42.921Z,7.10
2022-11-29T06:43:11.505Z,7.10
2022-11-29T06:45:50.128Z,6.70
2022-11-29T06:48:29.265Z,7.70
2022-11-29T06:51:22.109Z,7.00
2022-11-29T06:54:17.611Z,6.90
2022-11-29T06:57:33.671Z,7.20
2022-11-29T07:00:25.704Z,7.20
2022-11-29T07:03:11.956Z,7.60
2022-11-29T07:05:41.067Z,8.40
2022-11-29T07:08:19.015Z,8.50
2022-11-29T07:10:51.474Z,7.60
2022-11-29T07:13:20.883Z,7.70
2022-11-29T07:16:17.776Z,8.00
2022-11-29T07:19:31.313Z,8.10
2022-11-29T07:22:25.565Z,8.60
2022-11-29T07:24:59.016Z,7.70
2022-11-29T07:27:36.586Z,8.60
2022-11-29T07:30:44.705Z,8.20
2022-11-29T07:33:47.078Z,7.50
2022-11-29T07:36:39.142Z,8.10
2022-11-29T07:39:30.838Z,8.20
2022-11-29T07:42:26.478Z,7.80
2022-11-29T07:45:36.310Z,8.20
2022-11-29T07:48:05.758Z,7.80
2022-11-29T07:50:35.688Z,7.80
2022-11-29T07:53:04.103Z,7.60
2022-11-29T07:55:35.290Z,7.70
2022-11-29T07:58:03.336Z,7.80
2022-11-29T08:00:31.748Z,8.20
2022-11-29T08:03:00.417Z,8.40
2022-11-29T08:05:29.007Z,7.90
2022-11-29T08:07:57.837Z,8.40
2022-11-29T08:10:27.064Z,7.80
2022-11-29T08:12:56.825Z,7.80
2022-11-29T08:15:26.179Z,8.40
2022-11-29T08:17:54.452Z,8.20
2022-11-29T08:20:22.627Z,8.00
2022-11-29T08:22:55.846Z,7.70
2022-11-29T08:25:25.483Z,8.20
2022-11-29T08:27:54.748Z,8.20
2022-11-29T08:30:24.390Z,7.30
2022-11-29T08:32:53.082Z,8.00
2022-11-29T08:35:23.542Z,7.50
2022-11-29T08:37:51.701Z,8.20
2022-11-29T08:40:20.001Z,7.30
2022-11-29T08:42:48.610Z,7.60
2022-11-29T08:45:16.966Z,7.80
2022-11-29T08:47:45.282Z,8.10
2022-11-29T08:50:17.947Z,7.50
2022-11-29T08:53:08.948Z,7.30
2022-11-29T08:55:43.123Z,7.50
2022-11-29T08:58:16.032Z,7.70
2022-11-29T09:00:47.346Z,7.60
2022-11-29T09:03:34.303Z,8.20
2022-11-29T09:06:12.984Z,7.40
2022-11-29T09:08:45.663Z,7.60
2022-11-29T09:11:19.958Z,7.70
2022-11-29T09:13:53.619Z,8.10
2022-11-29T09:16:25.962Z,7.60
2022-11-29T09:18:56.136Z,7.50
2022-11-29T09:21:27.373Z,7.30
2022-11-29T09:23:59.911Z,8.30
2022-11-29T09:26:36.853Z,7.90
2022-11-29T09:29:07.198Z,7.50
2022-11-29T09:31:35.591Z,7.90
2022-11-29T09:34:04.237Z,7.70
2022-11-29T09:36:32.633Z,7.40
2022-11-29T09:39:03.100Z,6.80
2022-11-29T09:42:01.501Z,7.20
2022-11-29T09:44:54.815Z,7.20
2022-11-29T09:48:05.222Z,7.70
2022-11-29T09:51:35.966Z,8.10
2022-11-29T09:54:55.426Z,7.50
2022-11-29T09:57:27.116Z,7.50
2022-11-29T10:00:02.045Z,7.70
2022-11-29T10:02:58.556Z,7.50
2022-11-29T10:05:38.325Z,7.50
2022-11-29T10:08:16.214Z,7.50
2022-11-29T10:10:49.318Z,7.40
2022-11-29T10:13:23.797Z,6.90
2022-11-29T10:15:58.180Z,6.90
2022-11-29T10:18:38.537Z,7.40
2022-11-29T10:21:36.807Z,7.00
2022-11-29T10:24:17.657Z,7.10
2022-11-29T10:26:46.956Z,7.80
2022-11-29T10:29:17.077Z,7.60
2022-11-29T10:31:49.603Z,6.90
2022-11-29T10:34:25.531Z,7.30
2022-11-29T10:36:55.759Z,7.90
2022-11-29T10:39:55.135Z,7.10
2022-11-29T10:42:46.068Z,6.70
2022-11-29T10:45:33.974Z,7.90
2022-11-29T10:48:17.838Z,6.60
2022-11-29T10:50:50.301Z,6.50
2022-11-29T10:53:36.406Z,6.50
2022-11-29T10:56:23.215Z,6.70
2022-11-29T10:59:05.421Z,6.90
2022-11-29T11:01:42.821Z,6.60
2022-11-29T11:04:44.791Z,7.20
2022-11-29T11:07:36.084Z,6.90
2022-11-29T11:10:22.723Z,7.50
2022-11-29T11:13:21.747Z,6.70
2022-11-29T11:16:18.330Z,7.40
2022-11-29T11:18:48.450Z,7.00
2022-11-29T11:21:20.792Z,7.10
2022-11-29T11:24:02.049Z,6.60
2022-11-29T11:26:45.653Z,6.70
2022-11-29T11:29:32.343Z,6.60
2022-11-29T11:32:01.872Z,7.30
2022-11-29T11:34:53.401Z,7.20
2022-11-29T11:37:35.985Z,6.70
2022-11-29T11:40:29.172Z,6.70
2022-11-29T11:43:03.963Z,6.90
2022-11-29T11:45:36.776Z,6.80
2022-11-29T11:48:14.736Z,6.60
2022-11-29T11:50:54.640Z,6.50
2022-11-29T11:53:36.611Z,6.80
2022-11-29T11:56:09.272Z,6.50
2022-11-29T11:58:48.829Z,6.60
2022-11-29T12:01:25.391Z,6.70
2022-11-29T12:04:20.105Z,6.10
2022-11-29T12:06:57.283Z,6.90
2022-11-29T12:09:49.932Z,7.10
2022-11-29T12:12:26.095Z,6.40
2022-11-29T12:15:14.448Z,7.10
2022-11-29T12:17:57.567Z,6.40
2022-11-29T12:20:39.989Z,7.00
2022-11-29T12:23:14.304Z,7.00
2022-11-29T12:26:56.563Z,6.70
2022-11-29T12:29:22.952Z,6.40
2022-11-29T12:32:21.826Z,6.70
2022-11-29T12:35:08.344Z,6.00
2022-11-29T12:38:25.865Z,6.20
2022-11-29T12:41:27.423Z,6.30
2022-11-29T12:44:25.601Z,6.60
2022-11-29T12:48:01.461Z,5.80
2022-11-29T12:50:42.943Z,6.70
2022-11-29T12:54:10.716Z,6.50
2022-11-29T12:57:05.724Z,5.90
2022-11-29T13:00:05.282Z,5.90
2022-11-29T13:03:35.302Z,6.30
2022-11-29T13:06:23.119Z,6.00
2022-11-29T13:09:35.294Z,5.80
2022-11-29T13:12:39.413Z,5.50
2022-11-29T13:15:21.938Z,5.70
2022-11-29T13:18:34.949Z,6.00
2022-11-29T13:21:41.523Z,5.70
2022-11-29T13:24:18.601Z,5.60
2022-11-29T13:26:47.463Z,5.30
2022-11-29T13:29:18.621Z,5.80
2022-11-29T13:31:48.960Z,5.80
2022-11-29T13:34:45.605Z,5.30
2022-11-29T13:37:36.209Z,5.40
2022-11-29T13:40:33.258Z,6.30
2022-11-29T13:43:44.020Z,5.80
2022-11-29T13:46:43.590Z,5.90
2022-11-29T13:49:52.183Z,5.50
2022-11-29T13:52:49.655Z,5.70
2022-11-29T13:55:31.883Z,5.80
2022-11-29T13:58:28.776Z,6.30
2022-11-29T14:01:14.662Z,5.70
2022-11-29T14:03:45.401Z,5.20
2022-11-29T14:06:32.519Z,5.80
2022-11-29T14:09:31.703Z,5.90
2022-11-29T14:12:40.365Z,6.00
2022-11-29T14:15:32.256Z,6.40
2022-11-29T14:18:08.436Z,6.20
2022-11-29T14:20:39.170Z,5.90
2022-11-29T14:23:07.855Z,5.50
2022-11-29T14:25:53.718Z,5.40
2022-11-29T14:28:21.715Z,5.90
2022-11-29T14:30:55.359Z,5.90
2022-11-29T14:33:54.519Z,6.30
2022-11-29T14:36:54.986Z,5.90
2022-11-29T14:39:37.352Z,5.90
2022-11-29T14:42:20.242Z,5.80
2022-11-29T14:45:00.732Z,6.10
2022-11-29T14:47:38.276Z,6.10
2022-11-29T14:50:10.553Z,5.50
2022-11-29T14:52:52.008Z,5.90
2022-11-29T14:55:19.957Z,5.80
2022-11-29T14:57:48.075Z,5.70
2022-11-29T15:00:20.525Z,5.90
2022-11-29T15:03:00.458Z,5.60
2022-11-29T15:05:40.619Z,6.30
2022-11-29T15:08:37.457Z,6.00
2022-11-29T15:11:52.151Z,6.00
2022-11-29T15:14:43.384Z,6.80
2022-11-29T15:17:31.762Z,6.20
2022-11-29T15:20:25.257Z,6.40
2022-11-29T15:22:59.594Z,6.20
2022-11-29T15:25:31.881Z,6.80
2022-11-29T15:28:06.725Z,5.50
2022-11-29T15:30:39.918Z,6.00
2022-11-29T15:33:29.251Z,6.10
2022-11-29T15:36:07.145Z,6.20
2022-11-29T15:38:54.256Z,6.50
2022-11-29T15:41:35.608Z,5.90
2022-11-29T15:44:06.921Z,5.90
2022-11-29T15:46:36.287Z,6.20
2022-11-29T15:49:23.974Z,6.40
2022-11-29T15:52:10.933Z,5.50
2022-11-29T15:54:54.743Z,5.90
2022-11-29T15:57:35.238Z,6.10
2022-11-29T16:00:07.992Z,6.20
2022-11-29T16:02:46.435Z,6.00
2022-11-29T16:05:31.299Z,6.60
2022-11-29T16:08:17.502Z,6.50
2022-11-29T16:10:53.116Z,6.20
2022-11-29T16:13:38.990Z,6.30
2022-11-29T16:16:16.398Z,6.30
2022-11-29T16:18:48.106Z,5.90
2022-11-29T16:21:27.342Z,6.20
2022-11-29T16:23:56.974Z,6.20
2022-11-29T16:26:37.324Z,6.70
2022-11-29T16:29:06.182Z,6.20
2022-11-29T16:31:38.648Z,6.00
2022-11-29T16:34:30.204Z,6.40
2022-11-29T16:37:07.889Z,6.30
2022-11-29T16:39:38.522Z,6.40
2022-11-29T16:42:21.908Z,6.30
2022-11-29T16:45:02.567Z,6.10
2022-11-29T16:47:47.477Z,5.90
2022-11-29T16:50:19.753Z,6.30
2022-11-29T16:52:53.459Z,5.90
2022-11-29T16:55:24.677Z,5.90
2022-11-29T16:57:52.883Z,5.80
2022-11-29T17:00:33.498Z,6.10
2022-11-29T17:03:02.057Z,6.20
2022-11-29T17:05:31.459Z,5.70
2022-11-29T17:08:00.743Z,5.80
2022-11-29T17:10:29.050Z,6.20
2022-11-29T17:12:57.164Z,6.40
2022-11-29T17:15:25.133Z,5.70
2022-11-29T17:17:53.207Z,6.10
2022-11-29T17:20:21.261Z,5.90
2022-11-29T17:22:49.372Z,5.70
2022-11-29T17:25:17.326Z,5.60
2022-11-29T17:27:45.500Z,5.90
2022-11-29T17:30:14.301Z,6.00
2022-11-29T17:32:42.767Z,5.70
2022-11-29T17:35:10.733Z,5.50
2022-11-29T17:37:38.713Z,6.10
2022-11-29T17:40:08.196Z,6.00
2022-11-29T17:42:36.180Z,6.20
2022-11-29T17:45:04.739Z,5.90
2022-11-29T17:47:33.753Z,6.10
2022-11-29T17:50:01.725Z,6.30
2022-11-29T17:52:29.701Z,6.10
2022-11-29T17:54:57.667Z,6.00
2022-11-29T17:57:25.710Z,6.30
2022-11-29T17:59:53.557Z,5.90
2022-11-29T18:02:21.643Z,6.40
2022-11-29T18:04:49.679Z,6.00
2022-11-29T18:07:18.506Z,6.00
2022-11-29T18:09:48.654Z,5.70
2022-11-29T18:12:16.872Z,5.80
2022-11-29T18:14:45.309Z,5.70
2022-11-29T18:17:13.383Z,6.10
2022-11-29T18:19:42.979Z,5.70
2022-11-29T18:22:11.212Z,5.90
2022-11-29T18:24:43.501Z,5.60
2022-11-29T18:27:11.338Z,5.60
2022-11-29T18:29:39.579Z,6.10
2022-11-29T18:32:07.509Z,6.20
2022-11-29T18:34:36.016Z,6.20
2022-11-29T18:37:04.210Z,6.30
2022-11-29T18:39:32.479Z,5.90
2022-11-29T18:42:00.654Z,6.20
2022-11-29T18:44:31.388Z,5.60
2022-11-29T18:46:59.561Z,6.00
2022-11-29T18:49:27.535Z,6.10
2022-11-29T18:51:55.605Z,6.40
2022-11-29T18:54:23.778Z,5.60
2022-11-29T18:56:51.958Z,5.60
2022-11-29T18:59:22.215Z,5.80
2022-11-29T19:01:50.411Z,5.70
2022-11-29T19:04:21.243Z,5.80
2022-11-29T19:06:49.877Z,6.40
2022-11-29T19:09:21.787Z,5.80
2022-11-29T19:11:51.179Z,6.30
2022-11-29T19:14:20.273Z,7.30
2022-11-29T19:16:50.343Z,7.10
2022-11-29T19:19:19.153Z,6.90
2022-11-29T19:21:48.199Z,6.80
2022-11-29T19:24:18.660Z,7.40
2022-11-29T19:26:55.642Z,7.30
2022-11-29T19:29:23.817Z,6.90
2022-11-29T19:31:52.200Z,7.40
2022-11-29T19:34:20.269Z,7.30
2022-11-29T19:36:48.750Z,7.90
2022-11-29T19:39:17.931Z,6.80
2022-11-29T19:41:48.083Z,7.40
2022-11-29T19:44:16.237Z,7.50
2022-11-29T19:46:48.844Z,8.10
2022-11-29T19:49:17.515Z,7.70
2022-11-29T19:51:45.485Z,7.40
2022-11-29T19:54:13.857Z,7.40
2022-11-29T19:56:42.203Z,7.70
2022-11-29T19:59:10.923Z,7.80
2022-11-29T20:01:41.877Z,7.20
2022-11-29T20:04:13.949Z,6.90
2022-11-29T20:06:44.801Z,7.60
2022-11-29T20:09:14.426Z,7.40
2022-11-29T20:11:42.761Z,8.00
2022-11-29T20:14:12.866Z,8.20
2022-11-29T20:16:42.170Z,7.10
2022-11-29T20:19:14.494Z,7.10
2022-11-29T20:21:47.811Z,6.80
2022-11-29T20:24:17.841Z,7.10
2022-11-29T20:26:48.688Z,7.00
2022-11-29T20:29:17.683Z,7.10
2022-11-29T20:31:50.217Z,6.90
2022-11-29T20:34:20.590Z,7.60
2022-11-29T20:37:21.946Z,7.00
2022-11-29T20:40:10.170Z,7.00
2022-11-29T20:43:03.755Z,6.90
2022-11-29T20:45:32.659Z,6.70
2022-11-29T20:48:22.774Z,7.30
2022-11-29T20:51:00.020Z,6.70
2022-11-29T20:53:46.206Z,6.80
2022-11-29T20:56:14.286Z,6.80
2022-11-29T20:58:42.301Z,7.50
2022-11-29T21:01:12.146Z,7.50
2022-11-29T21:03:40.667Z,7.30
2022-11-29T21:06:08.725Z,7.50
2022-11-29T21:08:36.907Z,6.90
2022-11-29T21:11:09.209Z,7.00
2022-11-29T21:13:38.372Z,7.00
2022-11-29T21:16:07.474Z,7.10
2022-11-29T21:18:36.214Z,7.30
2022-11-29T21:21:07.090Z,6.40
2022-11-29T21:23:55.377Z,7.00
2022-11-29T21:26:44.942Z,7.00
2022-11-29T21:29:18.342Z,6.90
2022-11-29T21:31:50.508Z,7.10
2022-11-29T21:34:20.882Z,7.00
2022-11-29T21:36:56.970Z,6.50
2022-11-29T21:39:34.967Z,6.80
2022-11-29T21:42:03.327Z,7.00
2022-11-29T21:44:31.571Z,6.80
2022-11-29T21:46:59.589Z,7.20
2022-11-29T21:49:27.514Z,7.10
2022-11-29T21:51:57.821Z,7.20
2022-11-29T21:54:26.210Z,6.90
2022-11-29T21:56:55.900Z,7.00
2022-11-29T21:59:28.258Z,7.00
2022-11-29T22:01:56.551Z,7.00
2022-11-29T22:04:25.412Z,7.20
2022-11-29T22:06:53.379Z,7.50
2022-11-29T22:09:21.765Z,7.70
2022-11-29T22:11:49.789Z,7.00
2022-11-29T22:14:20.984Z,7.50
2022-11-29T22:17:01.223Z,7.40
2022-11-29T22:19:36.348Z,7.60
2022-11-29T22:22:09.142Z,7.70
2022-11-29T22:24:37.792Z,7.90
2022-11-29T22:27:05.809Z,7.70
2022-11-29T22:29:33.879Z,8.00
2022-11-29T22:32:02.579Z,7.50
2022-11-29T22:34:30.843Z,7.20
2022-11-29T22:36:59.017Z,7.70
2022-11-29T22:39:27.294Z,7.60
2022-11-29T22:41:55.451Z,7.10
2022-11-29T22:44:24.873Z,7.40
2022-11-29T22:46:53.146Z,7.20
2022-11-29T22:49:21.527Z,7.20
2022-11-29T22:51:49.602Z,6.80
2022-11-29T22:54:18.137Z,6.90
2022-11-29T22:56:47.292Z,7.40
2022-11-29T22:59:15.359Z,7.10
2022-11-29T23:01:43.736Z,7.60
2022-11-29T23:04:13.257Z,7.60
2022-11-29T23:06:46.284Z,7.10
2022-11-29T23:09:21.080Z,7.20
2022-11-29T23:11:56.403Z,7.00
2022-11-29T23:14:24.679Z,7.10
2022-11-29T23:16:52.996Z,6.90
2022-11-29T23:19:21.638Z,6.80
2022-11-29T23:21:49.602Z,7.10
2022-11-29T23:24:17.708Z,7.80
2022-11-29T23:26:47.576Z,7.20
2022-11-29T23:29:18.940Z,7.20
2022-11-29T23:31:47.888Z,6.80
2022-11-29T23:34:16.157Z,7.00
2022-11-29T23:36:49.668Z,7.30
2022-11-29T23:39:21.058Z,6.80
2022-11-29T23:41:49.029Z,7.20
2022-11-29T23:44:17.001Z,7.10
2022-11-29T23:46:45.013Z,7.50
2022-11-29T23:49:12.900Z,7.70
2022-11-29T23:51:40.803Z,7.40
2022-11-29T23:54:09.090Z,6.80
2022-11-29T23:56:37.075Z,7.40
2022-11-29T23:59:05.324Z,7.60
